createdAt,value
2022-10-06T00:01:02.914Z,97646.91
2022-10-06T00:03:31.008Z,97649.97
2022-10-06T00:06:02.445Z,97642.91
2022-10-06T00:08:31.392Z,97652.97
2022-10-06T00:10:58.917Z,97650.34
2022-10-06T00:13:26.022Z,97653.59
2022-10-06T00:15:52.752Z,97646.97
2022-10-06T00:18:19.925Z,97657.84
2022-10-06T00:20:53.909Z,97659.44
2022-10-06T00:23:21.371Z,97657.22
2022-10-06T00:25:47.846Z,97657.38
2022-10-06T00:28:14.860Z,97652.97
2022-10-06T00:30:41.936Z,97657.81
2022-10-06T00:33:12.761Z,97657.44
2022-10-06T00:35:40.053Z,97653.59
2022-10-06T00:38:06.546Z,97668.09
2022-10-06T00:40:33.942Z,97670.34
2022-10-06T00:43:03.183Z,97670.94
2022-10-06T00:45:37.592Z,97671.13
2022-10-06T00:48:16.667Z,97675.56
2022-10-06T00:50:44.320Z,97684.84
2022-10-06T00:53:11.820Z,97681.41
2022-10-06T00:55:38.349Z,97679.19
2022-10-06T00:58:05.387Z,97679.97
2022-10-06T01:00:33.466Z,97688.47
2022-10-06T01:03:15.809Z,97685.25
2022-10-06T01:05:47.468Z,97682.63
2022-10-06T01:08:15.487Z,97690.88
2022-10-06T01:10:42.871Z,97690.66
2022-10-06T01:13:11.250Z,97688.25
2022-10-06T01:15:44.458Z,97688.25
2022-10-06T01:18:14.905Z,97683.59
2022-10-06T01:20:47.132Z,97690.25
2022-10-06T01:23:13.905Z,97697.69
2022-10-06T01:25:41.561Z,97685.63
2022-10-06T01:28:10.179Z,97693.09
2022-10-06T01:30:57.802Z,97683.59
2022-10-06T01:33:24.540Z,97689.25
2022-10-06T01:35:52.922Z,97704.16
2022-10-06T01:38:20.240Z,97711.00
2022-10-06T01:40:52.059Z,97700.53
2022-10-06T01:43:19.542Z,97704.16
2022-10-06T01:45:53.015Z,97695.47
2022-10-06T01:48:19.691Z,97697.72
2022-10-06T01:50:47.436Z,97703.94
2022-10-06T01:53:13.944Z,97706.75
2022-10-06T01:55:41.572Z,97714.59
2022-10-06T01:58:09.813Z,97696.28
2022-10-06T02:00:36.790Z,97708.94
2022-10-06T02:03:03.408Z,97705.91
2022-10-06T02:05:29.874Z,97709.16
2022-10-06T02:07:56.475Z,97706.97
2022-10-06T02:10:23.969Z,97712.59
2022-10-06T02:12:52.936Z,97722.84
2022-10-06T02:15:21.794Z,97721.44
2022-10-06T02:17:48.600Z,97719.44
2022-10-06T02:20:15.937Z,97722.44
2022-10-06T02:22:43.770Z,97721.00
2022-10-06T02:25:14.684Z,97726.25
2022-10-06T02:27:41.386Z,97726.44
2022-10-06T02:30:10.743Z,97727.44
2022-10-06T02:32:39.694Z,97734.66
2022-10-06T02:35:09.036Z,97733.66
2022-10-06T02:37:35.743Z,97735.25
2022-10-06T02:40:02.817Z,97733.03
2022-10-06T02:42:30.993Z,97733.44
2022-10-06T02:44:59.017Z,97736.66
2022-10-06T02:47:25.895Z,97732.63
2022-10-06T02:49:53.561Z,97744.69
2022-10-06T02:52:20.154Z,97738.25
2022-10-06T02:54:48.010Z,97746.53
2022-10-06T02:57:15.350Z,97750.72
2022-10-06T02:59:42.983Z,97743.06
2022-10-06T03:02:09.795Z,97756.16
2022-10-06T03:04:36.572Z,97755.53
2022-10-06T03:07:03.370Z,97757.13
2022-10-06T03:09:35.082Z,97757.53
2022-10-06T03:12:01.823Z,97762.97
2022-10-06T03:14:39.988Z,97775.25
2022-10-06T03:17:11.383Z,97773.63
2022-10-06T03:19:44.659Z,97774.81
2022-10-06T03:22:11.136Z,97778.69
2022-10-06T03:24:51.302Z,97776.78
2022-10-06T03:27:17.789Z,97778.81
2022-10-06T03:29:46.029Z,97787.84
2022-10-06T03:32:13.521Z,97779.78
2022-10-06T03:34:40.328Z,97783.22
2022-10-06T03:37:10.375Z,97795.88
2022-10-06T03:39:36.814Z,97791.06
2022-10-06T03:42:03.572Z,97802.94
2022-10-06T03:44:32.286Z,97802.28
2022-10-06T03:46:58.994Z,97811.94
2022-10-06T03:49:28.493Z,97812.19
2022-10-06T03:51:55.259Z,97814.78
2022-10-06T03:54:27.378Z,97817.63
2022-10-06T03:56:54.416Z,97822.06
2022-10-06T03:59:20.979Z,97821.44
2022-10-06T04:01:50.023Z,97822.25
2022-10-06T04:04:20.882Z,97821.41
2022-10-06T04:06:51.388Z,97829.66
2022-10-06T04:09:19.704Z,97827.47
2022-10-06T04:11:47.970Z,97823.25
2022-10-06T04:14:16.348Z,97829.66
2022-10-06T04:16:49.449Z,97822.59
2022-10-06T04:19:20.985Z,97834.84
2022-10-06T04:21:53.488Z,97844.09
2022-10-06T04:24:24.573Z,97843.28
2022-10-06T04:26:52.426Z,97840.59
2022-10-06T04:29:21.090Z,97850.25
2022-10-06T04:31:52.507Z,97849.69
2022-10-06T04:34:31.071Z,97853.69
2022-10-06T04:36:57.869Z,97854.50
2022-10-06T04:39:24.459Z,97869.66
2022-10-06T04:41:50.923Z,97866.88
2022-10-06T04:44:22.926Z,97852.19
2022-10-06T04:46:49.808Z,97864.41
2022-10-06T04:49:20.287Z,97874.16
2022-10-06T04:51:49.752Z,97883.69
2022-10-06T04:54:17.363Z,97883.13
2022-10-06T04:56:44.948Z,97880.34
2022-10-06T04:59:11.562Z,97889.78
2022-10-06T05:01:41.005Z,97889.00
2022-10-06T05:04:11.663Z,97886.88
2022-10-06T05:06:41.207Z,97890.00
2022-10-06T05:09:11.034Z,97898.91
2022-10-06T05:11:40.308Z,97897.72
2022-10-06T05:14:09.486Z,97907.75
2022-10-06T05:16:39.630Z,97901.31
2022-10-06T05:19:08.188Z,97902.53
2022-10-06T05:21:37.499Z,97899.72
2022-10-06T05:24:05.465Z,97896.72
2022-10-06T05:26:35.000Z,97904.59
2022-10-06T05:29:04.388Z,97911.44
2022-10-06T05:31:33.270Z,97907.22
2022-10-06T05:34:02.749Z,97917.06
2022-10-06T05:36:31.866Z,97916.88
2022-10-06T05:38:59.140Z,97914.72
2022-10-06T05:41:29.979Z,97925.66
2022-10-06T05:43:59.119Z,97935.06
2022-10-06T05:46:28.751Z,97932.81
2022-10-06T05:48:58.893Z,97935.66
2022-10-06T05:51:31.380Z,97933.63
2022-10-06T05:54:00.513Z,97941.38
2022-10-06T05:56:29.875Z,97938.53
2022-10-06T05:58:58.088Z,97941.41
2022-10-06T06:01:31.705Z,97950.94
2022-10-06T06:04:04.133Z,97954.00
2022-10-06T06:06:39.297Z,97959.47
2022-10-06T06:09:18.809Z,97962.88
2022-10-06T06:11:49.783Z,97974.44
2022-10-06T06:14:40.944Z,97969.22
2022-10-06T06:17:08.478Z,97971.06
2022-10-06T06:19:35.127Z,97977.53
2022-10-06T06:22:01.785Z,97982.41
2022-10-06T06:24:29.185Z,97981.97
2022-10-06T06:26:55.717Z,97996.44
2022-10-06T06:29:24.317Z,97998.41
2022-10-06T06:31:51.355Z,97996.41
2022-10-06T06:34:17.974Z,98001.31
2022-10-06T06:36:46.953Z,98002.75
2022-10-06T06:39:17.591Z,98008.41
2022-10-06T06:41:46.441Z,98003.75
2022-10-06T06:44:28.991Z,98008.59
2022-10-06T06:47:02.650Z,98013.66
2022-10-06T06:49:29.740Z,98024.78
2022-10-06T06:52:04.725Z,98009.25
2022-10-06T06:54:33.427Z,98019.53
2022-10-06T06:57:09.904Z,98027.78
2022-10-06T06:59:38.159Z,98023.97
2022-10-06T07:02:06.660Z,98034.25
2022-10-06T07:04:37.432Z,98034.06
2022-10-06T07:07:05.790Z,98035.03
2022-10-06T07:09:35.565Z,98047.75
2022-10-06T07:12:11.478Z,98047.16
2022-10-06T07:15:01.463Z,98041.50
2022-10-06T07:17:48.457Z,98043.50
2022-10-06T07:20:34.277Z,98050.56
2022-10-06T07:23:19.598Z,98045.72
2022-10-06T07:25:46.248Z,98050.53
2022-10-06T07:28:16.877Z,98043.63
2022-10-06T07:30:44.824Z,98040.63
2022-10-06T07:33:15.414Z,98048.44
2022-10-06T07:35:43.557Z,98047.38
2022-10-06T07:38:10.969Z,98062.22
2022-10-06T07:43:41.460Z,98057.19
2022-10-06T07:46:11.188Z,98063.56
2022-10-06T07:48:49.173Z,98045.03
2022-10-06T07:51:18.759Z,98058.09
2022-10-06T07:53:50.114Z,98054.25
2022-10-06T07:56:25.774Z,98066.03
2022-10-06T07:58:56.186Z,98060.03
2022-10-06T08:01:22.817Z,98065.00
2022-10-06T08:03:50.612Z,98056.97
2022-10-06T08:06:18.863Z,98071.88
2022-10-06T08:08:52.436Z,98072.00
2022-10-06T08:11:20.119Z,98070.81
2022-10-06T08:13:48.315Z,98071.56
2022-10-06T08:16:20.648Z,98076.06
2022-10-06T08:18:53.309Z,98079.66
2022-10-06T08:21:23.346Z,98083.56
2022-10-06T08:23:51.554Z,98085.94
2022-10-06T08:26:20.169Z,98084.34
2022-10-06T08:28:50.202Z,98090.09
2022-10-06T08:31:18.679Z,98094.22
2022-10-06T08:33:46.074Z,98090.16
2022-10-06T08:36:16.679Z,98085.38
2022-10-06T08:38:43.266Z,98079.50
2022-10-06T08:41:32.673Z,98091.34
2022-10-06T08:44:05.404Z,98085.94
2022-10-06T08:46:39.737Z,98095.59
2022-10-06T08:49:11.758Z,98096.78
2022-10-06T08:51:54.686Z,98100.56
2022-10-06T08:54:58.894Z,98101.50
2022-10-06T08:57:52.532Z,98103.09
2022-10-06T09:00:21.420Z,98094.28
2022-10-06T09:02:49.957Z,98098.06
2022-10-06T09:05:25.215Z,98101.78
2022-10-06T09:08:19.421Z,98093.81
2022-10-06T09:11:10.354Z,98102.03
2022-10-06T09:13:53.102Z,98097.44
2022-10-06T09:16:28.254Z,98103.28
2022-10-06T09:19:14.728Z,98103.78
2022-10-06T09:21:49.295Z,98097.19
2022-10-06T09:24:18.863Z,98105.38
2022-10-06T09:26:49.555Z,98106.88
2022-10-06T09:29:16.702Z,98107.44
2022-10-06T09:31:47.461Z,98105.66
2022-10-06T09:34:21.558Z,98114.94
2022-10-06T09:37:01.537Z,98112.66
2022-10-06T09:39:33.244Z,98113.72
2022-10-06T09:42:19.664Z,98110.69
2022-10-06T09:45:03.971Z,98112.38
2022-10-06T09:47:34.823Z,98104.94
2022-10-06T09:50:20.372Z,98114.94
2022-10-06T09:53:03.273Z,98118.47
2022-10-06T09:55:43.001Z,98120.44
2022-10-06T09:58:52.500Z,98121.38
2022-10-06T10:01:25.009Z,98122.88
2022-10-06T10:04:15.940Z,98132.13
2022-10-06T10:06:41.682Z,98124.03
2022-10-06T10:09:23.840Z,98139.38
2022-10-06T10:12:31.234Z,98141.31
2022-10-06T10:15:04.476Z,98143.06
2022-10-06T10:33:11.186Z,98133.13
2022-10-06T10:35:45.774Z,98130.78
2022-10-06T10:38:19.460Z,98147.47
2022-10-06T10:41:06.781Z,98143.19
2022-10-06T10:43:45.502Z,98141.94
2022-10-06T10:46:34.682Z,98136.97
2022-10-06T10:49:07.968Z,98144.91
2022-10-06T10:51:46.273Z,98151.75
2022-10-06T10:54:18.846Z,98153.38
2022-10-06T10:56:49.168Z,98143.94
2022-10-06T10:59:23.275Z,98149.09
2022-10-06T11:01:59.832Z,98151.00
2022-10-06T11:04:26.915Z,98146.66
2022-10-06T11:07:02.354Z,98148.44
2022-10-06T11:09:40.701Z,98147.41
2022-10-06T11:12:13.272Z,98151.38
2022-10-06T11:14:45.671Z,98137.56
2022-10-06T11:17:47.067Z,98137.94
2022-10-06T11:20:45.958Z,98132.75
2022-10-06T11:23:38.956Z,98138.31
2022-10-06T11:26:28.486Z,98132.06
2022-10-06T11:28:59.729Z,98133.94
2022-10-06T11:31:44.389Z,98138.06
2022-10-06T11:34:11.130Z,98129.09
2022-10-06T11:36:43.928Z,98133.19
2022-10-06T11:39:23.526Z,98131.78
2022-10-06T11:42:00.374Z,98133.94
2022-10-06T11:44:37.284Z,98135.56
2022-10-06T11:47:10.677Z,98128.44
2022-10-06T11:49:51.999Z,98125.50
2022-10-06T11:52:18.754Z,98117.38
2022-10-06T11:55:07.577Z,98119.56
2022-10-06T11:57:35.232Z,98123.47
2022-10-06T12:00:02.364Z,98116.59
2022-10-06T12:02:33.546Z,98125.16
2022-10-06T12:05:28.612Z,98119.59
2022-10-06T12:07:55.739Z,98114.44
2022-10-06T12:10:28.031Z,98113.41
2022-10-06T12:13:31.728Z,98114.38
2022-10-06T12:19:28.909Z,98113.19
2022-10-06T12:22:26.033Z,98109.84
2022-10-06T12:25:00.763Z,98108.97
2022-10-06T12:27:44.061Z,98105.25
2022-10-06T12:30:27.841Z,98107.06
2022-10-06T12:32:59.277Z,98100.84
2022-10-06T12:35:34.033Z,98100.78
2022-10-06T12:38:05.887Z,98098.00
2022-10-06T12:40:38.292Z,98094.94
2022-10-06T12:43:17.489Z,98093.25
2022-10-06T12:45:48.327Z,98095.75
2022-10-06T12:48:57.268Z,98099.91
2022-10-06T12:51:35.044Z,98099.69
2022-10-06T12:54:24.979Z,98103.06
2022-10-06T12:57:16.581Z,98109.09
2022-10-06T12:59:43.320Z,98105.31
2022-10-06T13:02:09.775Z,98108.75
2022-10-06T13:04:40.843Z,98108.31
2022-10-06T13:07:33.972Z,98099.25
2022-10-06T13:10:15.557Z,98098.56
2022-10-06T13:12:46.705Z,98093.78
2022-10-06T13:15:16.651Z,98095.13
2022-10-06T13:17:50.676Z,98099.59
2022-10-06T13:20:24.454Z,98082.75
2022-10-06T13:23:10.181Z,98100.50
2022-10-06T13:25:44.175Z,98091.22
2022-10-06T13:28:26.354Z,98096.91
2022-10-06T13:30:58.835Z,98103.34
2022-10-06T13:33:31.327Z,98095.88
2022-10-06T13:35:58.754Z,98089.81
2022-10-06T13:38:25.949Z,98090.13
2022-10-06T13:41:17.323Z,98089.44
2022-10-06T13:43:49.879Z,98083.94
2022-10-06T13:46:20.835Z,98094.97
2022-10-06T13:49:24.718Z,98088.59
2022-10-06T13:51:56.897Z,98086.25
2022-10-06T13:54:30.666Z,98095.94
2022-10-06T13:56:58.730Z,98088.81
2022-10-06T13:59:28.063Z,98083.53
2022-10-06T14:01:56.000Z,98084.50
2022-10-06T14:04:22.708Z,98095.63
2022-10-06T14:06:56.032Z,98098.16
2022-10-06T14:09:30.403Z,98094.22
2022-10-06T14:12:12.534Z,98089.72
2022-10-06T14:14:39.512Z,98096.69
2022-10-06T14:17:06.238Z,98091.41
2022-10-06T14:19:38.987Z,98097.50
2022-10-06T14:22:26.327Z,98100.53
2022-10-06T14:24:52.825Z,98092.69
2022-10-06T14:27:19.214Z,98095.00
2022-10-06T14:29:45.685Z,98097.06
2022-10-06T14:32:18.109Z,98085.00
2022-10-06T14:34:45.040Z,98095.31
2022-10-06T14:37:17.618Z,98091.34
2022-10-06T14:39:45.484Z,98096.28
2022-10-06T14:42:14.401Z,98090.94
2022-10-06T14:44:41.053Z,98096.00
2022-10-06T14:47:09.222Z,98096.03
2022-10-06T14:49:37.673Z,98091.56
2022-10-06T14:52:05.541Z,98086.56
2022-10-06T14:54:34.504Z,98081.28
2022-10-06T14:57:01.113Z,98079.28
2022-10-06T14:59:27.948Z,98085.59
2022-10-06T15:01:54.593Z,98081.47
2022-10-06T15:04:24.112Z,98079.31
2022-10-06T15:07:09.866Z,98079.75
2022-10-06T15:09:36.414Z,98071.44
2022-10-06T15:12:03.296Z,98083.66
2022-10-06T15:14:30.128Z,98080.63
2022-10-06T15:16:59.962Z,98078.78
2022-10-06T15:19:27.162Z,98086.25
2022-10-06T15:21:54.494Z,98084.94
2022-10-06T15:24:21.240Z,98081.25
2022-10-06T15:27:06.880Z,98071.41
2022-10-06T15:29:36.732Z,98083.16
2022-10-06T15:32:06.591Z,98073.59
2022-10-06T15:34:34.395Z,98076.16
2022-10-06T15:37:01.466Z,98080.72
2022-10-06T15:39:34.570Z,98079.59
2022-10-06T15:42:01.322Z,98074.81
2022-10-06T15:44:31.691Z,98076.84
2022-10-06T15:46:58.425Z,98072.63
2022-10-06T15:49:27.006Z,98076.31
2022-10-06T15:51:56.743Z,98080.66
2022-10-06T15:54:25.701Z,98078.03
2022-10-06T15:56:54.613Z,98079.28
2022-10-06T15:59:25.589Z,98083.03
2022-10-06T16:01:56.872Z,98080.41
2022-10-06T16:04:31.171Z,98081.63
2022-10-06T16:06:58.691Z,98081.47
2022-10-06T16:09:27.671Z,98076.63
2022-10-06T16:11:55.913Z,98079.56
2022-10-06T16:14:23.173Z,98083.38
2022-10-06T16:16:50.229Z,98081.88
2022-10-06T16:19:18.103Z,98080.19
2022-10-06T16:21:48.397Z,98084.19
2022-10-06T16:24:17.036Z,98085.63
2022-10-06T16:26:43.728Z,98081.69
2022-10-06T16:29:10.316Z,98087.78
2022-10-06T16:31:36.755Z,98083.44
2022-10-06T16:34:03.785Z,98082.69
2022-10-06T16:36:30.484Z,98094.06
2022-10-06T16:38:57.485Z,98098.84
2022-10-06T16:41:24.428Z,98087.34
2022-10-06T16:43:53.327Z,98096.31
2022-10-06T16:46:22.682Z,98102.72
2022-10-06T16:48:52.029Z,98103.97
2022-10-06T16:51:19.643Z,98102.81
2022-10-06T16:53:53.893Z,98107.28
2022-10-06T16:56:22.122Z,98098.78
2022-10-06T16:58:53.422Z,98104.84
2022-10-06T17:01:47.567Z,98103.63
2022-10-06T17:04:19.681Z,98100.19
2022-10-06T17:06:47.460Z,98105.19
2022-10-06T17:09:16.707Z,98103.66
2022-10-06T17:11:55.268Z,98104.47
2022-10-06T17:14:21.979Z,98105.72
2022-10-06T17:16:50.871Z,98104.97
2022-10-06T17:19:19.004Z,98102.28
2022-10-06T17:21:48.042Z,98114.69
2022-10-06T17:24:20.347Z,98102.66
2022-10-06T17:26:49.050Z,98111.19
2022-10-06T17:29:25.930Z,98116.91
2022-10-06T17:31:56.259Z,98111.84
2022-10-06T17:34:26.517Z,98112.13
2022-10-06T17:36:57.280Z,98116.47
2022-10-06T17:39:24.480Z,98109.16
2022-10-06T17:41:53.426Z,98128.19
2022-10-06T17:44:23.440Z,98126.81
2022-10-06T17:46:52.372Z,98126.81
2022-10-06T17:49:21.232Z,98129.44
2022-10-06T17:51:49.175Z,98127.00
2022-10-06T17:54:19.228Z,98132.38
2022-10-06T17:56:48.188Z,98134.09
2022-10-06T17:59:17.573Z,98126.44
2022-10-06T18:01:44.998Z,98122.97
2022-10-06T18:04:16.060Z,98128.41
2022-10-06T18:06:43.814Z,98121.75
2022-10-06T18:09:11.149Z,98118.97
2022-10-06T18:11:38.853Z,98119.25
2022-10-06T18:14:12.668Z,98116.66
2022-10-06T18:16:42.200Z,98123.81
2022-10-06T18:19:13.217Z,98126.13
2022-10-06T18:21:42.149Z,98123.94
2022-10-06T18:24:23.194Z,98109.69
2022-10-06T18:26:51.356Z,98116.94
2022-10-06T18:29:24.037Z,98113.41
2022-10-06T18:31:52.144Z,98124.13
2022-10-06T18:37:05.907Z,98120.38
2022-10-06T18:39:33.428Z,98122.03
2022-10-06T18:42:02.903Z,98111.53
2022-10-06T18:44:48.649Z,98113.97
2022-10-06T18:47:34.045Z,98120.91
2022-10-06T18:50:00.661Z,98125.19
2022-10-06T18:52:27.499Z,98124.44
2022-10-06T18:54:54.003Z,98124.25
2022-10-06T18:57:25.055Z,98120.66
2022-10-06T18:59:53.402Z,98125.09
2022-10-06T19:02:20.054Z,98127.72
2022-10-06T19:04:47.950Z,98126.69
2022-10-06T19:07:14.471Z,98123.06
2022-10-06T19:09:46.170Z,98126.34
2022-10-06T19:12:13.280Z,98121.88
2022-10-06T19:14:46.970Z,98116.25
2022-10-06T19:17:15.067Z,98128.63
2022-10-06T19:19:51.054Z,98127.22
2022-10-06T19:22:19.954Z,98129.22
2022-10-06T19:24:48.471Z,98133.66
2022-10-06T19:27:20.717Z,98134.31
2022-10-06T19:29:54.255Z,98131.28
2022-10-06T19:32:27.575Z,98132.50
2022-10-06T19:34:58.744Z,98127.03
2022-10-06T19:37:30.323Z,98132.50
2022-10-06T19:39:57.294Z,98137.16
2022-10-06T19:42:42.537Z,98139.38
2022-10-06T19:45:11.669Z,98137.16
2022-10-06T19:47:38.362Z,98137.81
2022-10-06T19:50:11.262Z,98140.25
2022-10-06T19:52:38.864Z,98133.78
2022-10-06T19:55:05.646Z,98133.41
2022-10-06T19:57:33.560Z,98141.47
2022-10-06T20:00:00.402Z,98135.22
2022-10-06T20:02:28.546Z,98132.59
2022-10-06T20:04:55.032Z,98143.09
2022-10-06T20:07:25.299Z,98138.25
2022-10-06T20:09:51.780Z,98142.91
2022-10-06T20:12:23.619Z,98138.06
2022-10-06T20:14:51.261Z,98131.16
2022-10-06T20:17:17.709Z,98142.28
2022-10-06T20:19:44.201Z,98144.91
2022-10-06T20:22:10.618Z,98142.47
2022-10-06T20:24:37.063Z,98139.25
2022-10-06T20:27:03.594Z,98137.44
2022-10-06T20:29:31.494Z,98140.66
2022-10-06T20:31:58.758Z,98135.63
2022-10-06T20:34:31.827Z,98138.03
2022-10-06T20:37:02.506Z,98136.03
2022-10-06T20:39:49.716Z,98136.22
2022-10-06T20:42:16.908Z,98125.13
2022-10-06T20:44:44.269Z,98127.94
2022-10-06T20:47:12.202Z,98129.34
2022-10-06T20:49:39.195Z,98123.50
2022-10-06T20:52:06.203Z,98116.22
2022-10-06T20:54:35.389Z,98120.88
2022-10-06T20:57:04.550Z,98109.78
2022-10-06T20:59:32.055Z,98119.06
2022-10-06T21:02:02.795Z,98108.78
2022-10-06T21:04:29.459Z,98107.16
2022-10-06T21:06:56.134Z,98115.22
2022-10-06T21:09:24.300Z,98104.53
2022-10-06T21:11:51.375Z,98105.94
2022-10-06T21:14:18.269Z,98109.56
2022-10-06T21:16:47.823Z,98112.78
2022-10-06T21:19:16.789Z,98107.53
2022-10-06T21:21:49.843Z,98116.44
2022-10-06T21:24:16.712Z,98113.19
2022-10-06T21:26:43.314Z,98101.47
2022-10-06T21:29:11.580Z,98102.88
2022-10-06T21:31:38.447Z,98096.00
2022-10-06T21:34:05.169Z,98088.53
2022-10-06T21:36:32.249Z,98087.31
2022-10-06T21:39:01.387Z,98096.84
2022-10-06T21:41:32.009Z,98099.44
2022-10-06T21:44:00.878Z,98096.03
2022-10-06T21:46:33.491Z,98086.91
2022-10-06T21:49:02.465Z,98097.44
2022-10-06T21:51:30.489Z,98094.63
2022-10-06T21:53:58.800Z,98081.47
2022-10-06T21:56:27.318Z,98092.16
2022-10-06T21:58:55.919Z,98081.03
2022-10-06T22:17:57.291Z,98082.28
2022-10-06T22:20:23.918Z,98077.41
2022-10-06T22:22:51.541Z,98075.19
2022-10-06T22:25:18.165Z,98076.81
2022-10-06T22:27:44.950Z,98070.16
2022-10-06T22:30:12.501Z,98075.59
2022-10-06T22:32:39.616Z,98067.06
2022-10-06T22:35:07.332Z,98067.47
2022-10-06T22:37:33.911Z,98061.63
2022-10-06T22:40:04.083Z,98056.16
2022-10-06T22:42:33.401Z,98051.91
2022-10-06T22:44:59.912Z,98054.91
2022-10-06T22:47:26.508Z,98049.47
2022-10-06T22:49:52.989Z,98034.50
2022-10-06T22:52:19.905Z,98033.91
2022-10-06T22:54:46.500Z,98036.13
2022-10-06T22:57:13.013Z,98032.91
2022-10-06T22:59:40.385Z,98025.59
2022-10-06T23:02:06.986Z,98026.81
2022-10-06T23:04:33.682Z,98020.75
2022-10-06T23:07:00.257Z,98026.59
2022-10-06T23:09:27.003Z,98012.47
2022-10-06T23:11:53.532Z,98011.69
2022-10-06T23:14:20.288Z,98015.16
2022-10-06T23:16:46.972Z,98009.50
2022-10-06T23:19:13.743Z,98004.81
2022-10-06T23:21:40.446Z,98004.41
2022-10-06T23:24:07.667Z,98004.81
2022-10-06T23:26:34.354Z,97994.31
2022-10-06T23:29:02.477Z,97996.13
2022-10-06T23:31:29.576Z,97997.94
2022-10-06T23:33:56.681Z,97998.16
2022-10-06T23:36:23.777Z,97998.75
2022-10-06T23:38:50.569Z,97999.78
2022-10-06T23:41:17.388Z,97993.09
2022-10-06T23:43:44.189Z,98006.88
2022-10-06T23:46:11.431Z,98007.69
2022-10-06T23:48:38.122Z,98003.06
2022-10-06T23:51:09.028Z,97987.09
2022-10-06T23:53:36.050Z,97993.72
2022-10-06T23:56:03.555Z,97994.94
2022-10-06T23:58:30.218Z,97988.03
